Time;durP1;ratioP1;P1;durP2;ratioP2;P2;SDS_P1;SDS_P2;PMS_P1;PMS_P2;Temp;Humidity;BMP_temperature;BMP_pressure;BME280_temperature;BME280_humidity;BME280_pressure;Samples;Min_cycle;Max_cycle;Signal;HPM_P1;HPM_P2
2023/05/01 00:01:21;;;;;;;11.47;6.03;;;;;;;14.92;74.29;100266.84;5062118;28;20029;-72
2023/05/01 00:03:46;;;;;;;12.30;6.20;;;;;;;14.91;74.29;100275.72;5056647;28;20094;-71
2023/05/01 00:06:12;;;;;;;11.63;6.60;;;;;;;14.85;74.66;100275.84;5056370;28;20264;-71
2023/05/01 00:08:37;;;;;;;15.43;7.03;;;;;;;14.84;74.76;100271.47;5060681;28;20468;-71
2023/05/01 00:11:03;;;;;;;13.27;7.53;;;;;;;14.84;74.47;100279.41;5066130;28;20032;-71
2023/05/01 00:13:30;;;;;;;11.93;6.35;;;;;;;14.82;74.81;100275.03;5056453;28;20063;-71
2023/05/01 00:15:55;;;;;;;13.73;7.70;;;;;;;14.82;74.78;100267.94;5065341;28;20107;-71
2023/05/01 00:18:21;;;;;;;14.60;7.40;;;;;;;14.83;74.94;100274.13;5062436;28;20110;-71
2023/05/01 00:20:46;;;;;;;12.73;6.50;;;;;;;14.86;74.81;100269.66;5056232;28;20025;-71
2023/05/01 00:23:12;;;;;;;13.30;6.93;;;;;;;14.85;74.74;100262.59;5056936;28;20040;-71
2023/05/01 00:25:38;;;;;;;14.90;6.67;;;;;;;14.87;74.55;100259.91;5056419;28;20382;-71
2023/05/01 00:28:04;;;;;;;16.25;7.07;;;;;;;14.86;74.81;100264.34;5056520;28;20091;-71
2023/05/01 00:30:31;;;;;;;16.85;7.78;;;;;;;14.85;74.84;100259.94;5037938;28;20078;-71
2023/05/01 00:32:58;;;;;;;16.17;6.97;;;;;;;14.84;74.90;100255.56;5060593;28;20020;-71
2023/05/01 00:35:23;;;;;;;14.47;7.80;;;;;;;14.80;75.22;100253.84;5076279;28;20032;-72
2023/05/01 00:37:49;;;;;;;15.18;8.48;;;;;;;14.76;75.28;100250.41;5076076;28;20016;-71
2023/05/01 00:40:14;;;;;;;14.03;7.73;;;;;;;14.73;75.59;100247.84;5075982;28;20052;-71
2023/05/01 00:42:39;;;;;;;15.90;8.07;;;;;;;14.72;75.56;100250.50;5076060;28;20028;-71
2023/05/01 00:45:06;;;;;;;17.10;8.57;;;;;;;14.69;75.71;100248.75;5076238;28;20017;-71
2023/05/01 00:47:35;;;;;;;15.23;8.40;;;;;;;14.68;75.78;100244.34;5076051;28;20060;-71
2023/05/01 00:50:02;;;;;;;15.43;7.60;;;;;;;14.70;75.78;100242.53;5057809;28;20031;-71
2023/05/01 00:52:27;;;;;;;19.17;10.27;;;;;;;14.69;75.81;100253.19;5057515;28;20397;-71
2023/05/01 00:54:53;;;;;;;14.97;8.43;;;;;;;14.68;75.93;100248.78;5056048;28;20024;-71
2023/05/01 00:57:21;;;;;;;17.17;8.73;;;;;;;14.64;75.88;100247.97;5056062;28;20539;-71
2023/05/01 00:59:48;;;;;;;17.90;10.15;;;;;;;14.58;76.15;100238.38;5058944;28;20043;-71
2023/05/01 01:02:14;;;;;;;18.17;9.80;;;;;;;14.55;76.12;100238.44;5057390;28;20017;-71
2023/05/01 01:04:42;;;;;;;18.98;8.95;;;;;;;14.52;76.20;100233.22;5058618;28;20033;-71
2023/05/01 01:07:14;;;;;;;17.92;9.35;;;;;;;14.52;76.51;100230.56;5075872;28;20035;-72
2023/05/01 01:10:17;;;;;;;18.03;10.00;;;;;;;14.47;76.67;100230.69;5075850;28;20044;-71
2023/05/01 01:13:10;;;;;;;16.83;9.73;;;;;;;14.39;76.77;100226.44;5055765;28;20499;-71
2023/05/01 01:15:58;;;;;;;19.98;9.40;;;;;;;14.40;76.63;100222.88;5041408;28;20107;-72
2023/05/01 01:18:33;;;;;;;17.35;9.00;;;;;;;14.39;76.47;100216.69;5041499;28;20238;-71
2023/05/01 01:21:22;;;;;;;17.27;8.68;;;;;;;14.39;76.73;100221.13;5055580;28;20032;-72
2023/05/01 01:23:50;;;;;;;18.90;9.87;;;;;;;14.38;76.67;100220.25;5064798;28;20012;-71
2023/05/01 01:26:16;;;;;;;17.77;8.55;;;;;;;14.43;76.36;100212.22;5059792;28;20063;-71
2023/05/01 01:28:47;;;;;;;15.25;7.40;;;;;;;14.46;76.36;100220.09;5058620;28;20397;-71
2023/05/01 01:31:19;;;;;;;21.58;9.00;;;;;;;14.47;76.17;100219.19;5059138;28;20024;-71
2023/05/01 01:34:11;;;;;;;14.27;8.18;;;;;;;14.41;76.47;100217.53;5070305;28;20040;-72
2023/05/01 01:36:41;;;;;;;18.53;9.13;;;;;;;14.42;76.16;100232.53;5078975;28;20047;-72
2023/05/01 01:39:33;;;;;;;18.30;7.78;;;;;;;14.40;76.38;100220.22;5064280;28;20035;-72
2023/05/01 01:42:00;;;;;;;17.23;8.25;;;;;;;14.38;76.22;100225.56;5006162;28;20510;-71
2023/05/01 01:44:51;;;;;;;15.07;7.90;;;;;;;14.35;76.22;100226.50;5059227;28;20483;-72
2023/05/01 01:47:19;;;;;;;18.88;7.88;;;;;;;14.36;76.27;100232.66;5050021;28;20496;-71
2023/05/01 01:49:48;;;;;;;13.20;7.30;;;;;;;14.35;75.97;100226.50;5040911;28;20122;-71
2023/05/01 01:52:16;;;;;;;13.25;7.25;;;;;;;14.34;76.03;100227.38;5062705;28;20049;-72
2023/05/01 01:54:54;;;;;;;10.65;5.85;;;;;;;14.31;76.12;100232.75;5058995;28;20051;-72
2023/05/01 01:57:22;;;;;;;14.02;6.85;;;;;;;14.28;75.94;100227.50;5063810;28;20503;-71
2023/05/01 01:59:50;;;;;;;18.00;5.78;;;;;;;14.26;75.58;100228.47;5053714;28;20045;-72
2023/05/01 02:02:19;;;;;;;11.97;5.83;;;;;;;14.25;75.83;100229.38;5051438;28;20040;-72
2023/05/01 02:04:46;;;;;;;11.00;5.90;;;;;;;14.24;75.80;100232.91;5058652;28;20036;-71
2023/05/01 02:07:13;;;;;;;15.38;6.57;;;;;;;14.24;75.64;100225.84;5058640;28;20037;-71
2023/05/01 02:09:41;;;;;;;11.35;5.30;;;;;;;14.21;75.58;100229.41;5058640;28;20025;-71
2023/05/01 02:12:08;;;;;;;10.77;5.90;;;;;;;14.18;75.83;100237.41;5038781;28;20041;-71
2023/05/01 02:14:35;;;;;;;9.03;4.97;;;;;;;14.19;75.54;100230.34;5038521;28;20040;-71
2023/05/01 02:17:02;;;;;;;10.60;5.05;;;;;;;14.18;75.13;100244.50;5051709;28;20501;-71
2023/05/01 02:19:27;;;;;;;10.10;4.65;;;;;;;14.18;75.25;100240.06;5038419;28;20053;-71
2023/05/01 02:21:56;;;;;;;10.67;5.07;;;;;;;14.12;74.90;100242.84;5038745;28;20060;-71
2023/05/01 02:24:23;;;;;;;10.23;4.70;;;;;;;14.10;74.88;100241.09;5051548;28;20028;-71
2023/05/01 02:26:54;;;;;;;10.82;4.50;;;;;;;14.08;74.91;100246.44;5037201;28;20068;-71
2023/05/01 02:29:19;;;;;;;10.02;4.40;;;;;;;14.04;75.07;100250.91;5038442;28;20029;-71
2023/05/01 02:31:45;;;;;;;10.57;4.70;;;;;;;14.01;74.90;100247.47;5038216;28;20036;-72
2023/05/01 02:34:10;;;;;;;9.57;4.30;;;;;;;13.96;75.07;100252.84;5052985;28;20024;-71
2023/05/01 02:36:35;;;;;;;9.10;4.00;;;;;;;13.92;75.13;100245.88;5056574;28;20032;-71
2023/05/01 02:39:01;;;;;;;9.35;4.00;;;;;;;13.93;74.92;100252.91;5037380;28;20477;-71
2023/05/01 02:41:27;;;;;;;10.37;4.20;;;;;;;13.91;74.99;100255.56;5048181;28;20030;-71
2023/05/01 02:43:59;;;;;;;9.65;4.32;;;;;;;13.91;74.96;100252.06;5038120;28;20021;-71
2023/05/01 02:46:26;;;;;;;10.65;4.45;;;;;;;13.86;74.97;100246.84;5038151;28;20037;-71
2023/05/01 02:48:53;;;;;;;7.47;4.10;;;;;;;13.86;74.90;100248.59;5038096;28;20072;-71
2023/05/01 02:51:20;;;;;;;10.27;4.50;;;;;;;13.86;75.01;100248.59;5041642;28;20620;-71
2023/05/01 02:53:46;;;;;;;9.63;4.10;;;;;;;13.86;74.99;100254.78;5038037;28;20065;-71
2023/05/01 02:56:11;;;;;;;11.07;4.40;;;;;;;13.83;75.08;100254.84;5038208;28;20037;-71
2023/05/01 02:58:37;;;;;;;12.33;4.10;;;;;;;13.81;75.07;100261.06;5050790;28;20040;-71
2023/05/01 03:01:03;;;;;;;9.27;3.80;;;;;;;13.81;75.22;100254.00;5043886;28;20033;-71
2023/05/01 03:03:28;;;;;;;9.75;4.13;;;;;;;13.83;75.09;100248.66;5037966;28;20033;-71
2023/05/01 03:05:54;;;;;;;9.23;4.10;;;;;;;13.81;75.25;100258.41;5037635;28;20485;-71
2023/05/01 03:08:19;;;;;;;10.17;4.40;;;;;;;13.80;75.21;100257.53;5037669;28;20117;-71
2023/05/01 03:10:44;;;;;;;10.57;3.75;;;;;;;13.81;75.13;100261.94;5049381;28;20116;-71
2023/05/01 03:13:10;;;;;;;11.70;4.30;;;;;;;13.82;75.36;100258.38;5037485;28;20033;-71
2023/05/01 03:15:37;;;;;;;8.55;4.05;;;;;;;13.87;75.16;100260.97;5041547;28;20025;-71
2023/05/01 03:18:03;;;;;;;10.17;3.60;;;;;;;13.89;74.98;100264.47;5048210;28;20047;-71
2023/05/01 03:20:28;;;;;;;9.10;4.20;;;;;;;13.89;75.08;100265.31;5037260;28;20029;-71
2023/05/01 03:22:54;;;;;;;8.05;3.63;;;;;;;13.90;75.31;100266.19;5038909;28;20037;-71
2023/05/01 03:25:20;;;;;;;7.83;3.70;;;;;;;13.93;74.99;100264.34;5049385;28;20029;-71
2023/05/01 03:27:45;;;;;;;6.30;3.40;;;;;;;13.95;75.00;100259.03;5037335;28;20079;-71
2023/05/01 03:30:11;;;;;;;9.93;3.47;;;;;;;13.97;74.79;100261.66;5035678;28;20516;-71
2023/05/01 03:32:37;;;;;;;7.37;3.93;;;;;;;14.00;74.74;100266.91;5038308;28;20030;-71
2023/05/01 03:35:03;;;;;;;6.80;3.20;;;;;;;13.96;74.82;100263.44;5057233;28;20158;-71
2023/05/01 03:37:28;;;;;;;8.03;3.33;;;;;;;13.97;74.84;100257.25;5057048;28;20127;-71
2023/05/01 03:39:53;;;;;;;7.63;3.60;;;;;;;13.96;74.75;100258.13;5057115;28;20033;-71
2023/05/01 03:42:19;;;;;;;8.73;3.55;;;;;;;13.96;74.81;100255.50;5043810;28;20064;-71
2023/05/01 03:44:44;;;;;;;8.77;3.13;;;;;;;13.94;74.87;100259.94;5049561;28;20115;-71
2023/05/01 03:47:10;;;;;;;8.57;2.87;;;;;;;13.93;74.89;100259.06;5036990;28;20065;-71
2023/05/01 03:49:35;;;;;;;6.47;2.90;;;;;;;13.95;74.72;100250.22;5037079;28;20025;-71
2023/05/01 03:52:01;;;;;;;7.85;2.83;;;;;;;13.92;74.84;100256.44;5041745;28;20109;-71
2023/05/01 03:54:26;;;;;;;8.10;3.30;;;;;;;13.91;74.92;100257.34;5048102;28;20033;-72
2023/05/01 03:56:52;;;;;;;7.93;3.40;;;;;;;13.89;75.04;100260.03;5057015;28;20039;-71
2023/05/01 03:59:17;;;;;;;8.57;3.20;;;;;;;13.87;75.00;100266.25;5068076;28;20070;-71
2023/05/01 04:01:43;;;;;;;7.47;2.63;;;;;;;13.85;75.04;100268.03;5057245;28;20266;-71
2023/05/01 04:04:08;;;;;;;7.07;2.87;;;;;;;13.84;75.09;100266.28;5056919;28;20035;-71
2023/05/01 04:06:35;;;;;;;7.82;3.17;;;;;;;13.84;75.22;100266.28;5056661;28;20468;-71
2023/05/01 04:09:01;;;;;;;8.30;3.47;;;;;;;13.85;75.23;100268.03;5044342;28;20036;-71
2023/05/01 04:11:26;;;;;;;9.32;2.95;;;;;;;13.85;75.17;100263.63;5045348;28;20108;-71
2023/05/01 04:13:52;;;;;;;8.27;2.67;;;;;;;13.86;75.30;100269.78;5056655;28;20062;-71
2023/05/01 04:16:17;;;;;;;7.95;2.80;;;;;;;13.83;75.12;100264.53;5073276;28;20023;-71
2023/05/01 04:18:42;;;;;;;6.87;2.70;;;;;;;13.82;75.12;100260.16;5057405;28;20384;-71
2023/05/01 04:21:08;;;;;;;6.73;2.13;;;;;;;13.78;75.49;100262.84;5038695;28;20020;-72
2023/05/01 04:23:33;;;;;;;6.57;2.23;;;;;;;13.78;75.20;100265.50;5057558;28;20036;-71
2023/05/01 04:25:58;;;;;;;5.63;2.03;;;;;;;13.78;75.40;100262.84;5056516;28;20028;-71
2023/05/01 04:28:24;;;;;;;6.90;1.95;;;;;;;13.78;75.08;100262.84;5056454;28;20032;-71
2023/05/01 04:30:50;;;;;;;6.33;2.23;;;;;;;13.76;75.28;100267.31;5056266;28;20055;-72
2023/05/01 04:33:15;;;;;;;6.20;1.47;;;;;;;13.76;75.18;100264.66;5063251;28;20039;-72
2023/05/01 04:35:41;;;;;;;4.25;1.58;;;;;;;13.75;75.28;100268.19;5076427;28;20024;-71
2023/05/01 04:38:07;;;;;;;4.20;1.50;;;;;;;13.76;75.11;100269.94;5076560;28;20119;-71
2023/05/01 04:40:33;;;;;;;5.45;1.42;;;;;;;13.75;75.05;100270.84;5075903;28;20055;-71
2023/05/01 04:42:59;;;;;;;6.22;1.60;;;;;;;13.77;75.03;100270.84;5038485;28;20025;-71
2023/05/01 04:45:25;;;;;;;6.53;1.40;;;;;;;13.75;75.09;100265.56;5056501;28;20029;-71
2023/05/01 04:47:50;;;;;;;6.03;1.50;;;;;;;13.73;75.25;100282.34;5056568;28;20079;-71
2023/05/01 04:50:16;;;;;;;3.80;1.37;;;;;;;13.73;75.22;100272.66;5063302;28;20115;-72
2023/05/01 04:52:41;;;;;;;5.33;1.40;;;;;;;13.73;75.29;100275.28;5063175;28;20025;-71
2023/05/01 04:55:08;;;;;;;4.27;1.23;;;;;;;13.72;75.29;100277.97;5076356;28;20051;-71
2023/05/01 04:57:33;;;;;;;4.90;1.20;;;;;;;13.73;75.20;100277.94;5076488;28;20043;-71
2023/05/01 04:59:59;;;;;;;5.15;0.95;;;;;;;13.72;75.22;100273.56;5071048;28;20045;-71
2023/05/01 05:02:24;;;;;;;3.93;1.10;;;;;;;13.73;75.24;100272.66;5057314;28;20083;-72
2023/05/01 05:04:52;;;;;;;5.20;1.10;;;;;;;13.73;75.08;100280.59;5060022;28;20453;-71
2023/05/01 05:07:18;;;;;;;4.63;0.98;;;;;;;13.75;75.11;100283.22;5060458;28;20021;-72
2023/05/01 05:09:43;;;;;;;5.17;1.10;;;;;;;13.76;75.13;100277.03;5071536;28;20031;-72
2023/05/01 05:12:09;;;;;;;5.57;1.27;;;;;;;13.75;74.94;100281.44;5059916;28;20033;-71
2023/05/01 05:14:35;;;;;;;4.90;0.90;;;;;;;13.75;75.14;100281.44;5059916;28;20443;-71
2023/05/01 05:17:00;;;;;;;4.85;0.90;;;;;;;13.77;74.98;100282.28;5080121;28;20082;-71
2023/05/01 05:19:25;;;;;;;4.70;0.90;;;;;;;13.75;74.95;100284.09;5059806;28;20028;-71
2023/05/01 05:21:51;;;;;;;3.47;0.90;;;;;;;13.75;74.95;100284.09;5059903;28;20051;-71
2023/05/01 05:24:16;;;;;;;4.30;0.90;;;;;;;13.76;75.17;100284.97;5072800;28;20036;-72
2023/05/01 05:26:41;;;;;;;3.00;0.70;;;;;;;13.77;75.12;100282.28;5059898;28;20029;-72
2023/05/01 05:29:07;;;;;;;3.90;0.83;;;;;;;13.78;74.99;100288.47;5041941;28;20280;-72
2023/05/01 05:31:32;;;;;;;5.43;0.80;;;;;;;13.80;75.23;100285.78;5059366;28;20109;-71
2023/05/01 05:33:58;;;;;;;3.03;0.60;;;;;;;13.81;75.20;100292.81;5061818;28;20607;-71
2023/05/01 05:36:23;;;;;;;4.07;0.60;;;;;;;13.83;74.79;100302.50;5059407;28;20029;-71
2023/05/01 05:38:49;;;;;;;3.42;0.60;;;;;;;13.83;74.93;100304.25;5041704;28;20486;-71
2023/05/01 05:41:15;;;;;;;2.87;0.50;;;;;;;13.83;74.83;100306.88;5069561;28;20040;-71
2023/05/01 05:43:41;;;;;;;2.92;0.60;;;;;;;13.85;74.92;100315.69;5041731;28;20025;-71
2023/05/01 05:46:06;;;;;;;3.03;0.43;;;;;;;13.86;74.97;100318.31;5063417;28;20043;-71
2023/05/01 05:48:31;;;;;;;2.20;0.50;;;;;;;13.86;74.99;100317.41;5079454;28;20043;-71
2023/05/01 05:50:57;;;;;;;3.80;0.50;;;;;;;13.86;74.72;100312.13;5073144;28;20033;-71
2023/05/01 05:53:22;;;;;;;4.53;0.50;;;;;;;13.86;74.81;100317.41;5041383;28;20037;-71
2023/05/01 05:55:48;;;;;;;2.27;0.47;;;;;;;13.86;74.78;100322.72;5059204;28;20025;-71
2023/05/01 05:58:18;;;;;;;2.80;0.47;;;;;;;13.84;74.99;100321.88;5059268;28;20040;-72
2023/05/01 06:00:47;;;;;;;2.67;0.50;;;;;;;13.86;74.75;100322.72;5063403;28;20025;-72
2023/05/01 06:03:13;;;;;;;3.77;0.50;;;;;;;13.88;74.79;100326.25;5041295;28;20029;-72
2023/05/01 06:05:39;;;;;;;1.95;0.40;;;;;;;13.89;74.70;100323.56;5058940;28;20032;-71
2023/05/01 06:08:05;;;;;;;2.72;0.40;;;;;;;13.92;74.73;100327.94;5059103;28;20033;-71
2023/05/01 06:10:30;;;;;;;2.67;0.50;;;;;;;13.94;74.44;100331.44;5051981;28;20024;-72
2023/05/01 06:12:56;;;;;;;3.23;0.40;;;;;;;13.98;74.37;100341.06;5075996;28;20024;-72
2023/05/01 06:15:23;;;;;;;3.40;0.40;;;;;;;14.04;74.27;100338.28;5077711;28;20031;-72
2023/05/01 06:17:49;;;;;;;2.00;0.40;;;;;;;14.09;74.23;100339.97;5047240;28;20063;-72
2023/05/01 06:20:15;;;;;;;1.88;0.38;;;;;;;14.11;74.11;100338.22;5058868;28;20036;-72
2023/05/01 06:22:40;;;;;;;2.80;0.40;;;;;;;14.16;74.03;100331.06;5058698;28;20033;-72
2023/05/01 06:25:06;;;;;;;2.08;0.30;;;;;;;14.22;73.90;100328.28;5071838;28;20032;-72
2023/05/01 06:27:32;;;;;;;2.60;0.32;;;;;;;14.25;73.66;100335.31;5040910;28;20500;-72
2023/05/01 06:29:57;;;;;;;1.90;0.30;;;;;;;14.27;73.73;100337.00;5058606;28;20052;-72
2023/05/01 06:32:22;;;;;;;2.63;0.40;;;;;;;14.29;73.48;100345.81;5058412;28;20051;-72
2023/05/01 06:34:48;;;;;;;2.00;0.30;;;;;;;14.33;73.46;100344.84;5060377;28;20044;-72
2023/05/01 06:37:13;;;;;;;2.73;0.40;;;;;;;14.36;73.15;100341.28;5058752;28;20033;-72
2023/05/01 06:39:38;;;;;;;2.10;0.40;;;;;;;14.43;72.80;100344.69;5061130;28;20548;-72
2023/05/01 06:42:04;;;;;;;2.70;0.37;;;;;;;14.53;72.57;100348.91;5067583;28;20040;-73
2023/05/01 06:44:30;;;;;;;2.93;0.30;;;;;;;14.62;72.31;100351.38;5078288;28;20025;-73
2023/05/01 06:46:55;;;;;;;2.25;0.40;;;;;;;14.67;72.46;100350.41;5078111;28;20052;-72
2023/05/01 06:49:22;;;;;;;2.57;0.47;;;;;;;14.72;72.10;100357.41;5078108;28;20263;-72
2023/05/01 06:51:47;;;;;;;3.78;0.40;;;;;;;14.72;71.82;100352.13;5047650;28;20511;-73
2023/05/01 06:54:12;;;;;;;2.77;0.47;;;;;;;14.66;71.19;100346.03;5058132;28;20033;-72
2023/05/01 06:56:38;;;;;;;2.77;0.50;;;;;;;14.71;71.50;100344.19;5058015;28;20021;-73
2023/05/01 06:59:04;;;;;;;3.03;0.47;;;;;;;14.85;70.89;100343.91;5057867;28;20109;-73
2023/05/01 07:01:30;;;;;;;2.58;0.30;;;;;;;14.93;70.98;100342.84;5062708;28;20047;-73
2023/05/01 07:03:55;;;;;;;3.13;0.50;;;;;;;15.24;70.17;100340.44;5040117;28;20396;-74
2023/05/01 07:06:21;;;;;;;1.93;0.40;;;;;;;15.32;69.98;100338.50;5057757;28;20044;-73
2023/05/01 07:08:46;;;;;;;2.33;0.40;;;;;;;15.36;69.56;100342.81;5069778;28;20308;-73
2023/05/01 07:11:12;;;;;;;3.23;0.40;;;;;;;15.36;69.14;100348.13;5047832;28;20020;-72
2023/05/01 07:13:37;;;;;;;2.23;0.40;;;;;;;15.34;69.78;100352.59;5057684;28;20059;-72
2023/05/01 07:16:03;;;;;;;2.60;0.40;;;;;;;15.29;69.56;100351.81;5068835;28;20262;-72
2023/05/01 07:18:28;;;;;;;2.80;0.30;;;;;;;15.23;69.99;100358.13;5059684;28;20025;-72
2023/05/01 07:20:54;;;;;;;2.75;0.40;;;;;;;15.20;70.08;100355.56;5039637;28;20056;-72
2023/05/01 07:23:19;;;;;;;2.80;0.40;;;;;;;15.20;70.12;100351.09;5057539;28;20107;-72
2023/05/01 07:25:45;;;;;;;3.27;0.40;;;;;;;15.28;70.16;100365.97;5057277;28;20017;-72
2023/05/01 07:28:10;;;;;;;3.17;0.30;;;;;;;15.31;69.93;100365.91;5075400;28;20035;-72
2023/05/01 07:30:36;;;;;;;2.35;0.30;;;;;;;15.30;70.30;100369.47;5073808;28;20060;-72
2023/05/01 07:33:04;;;;;;;2.40;0.40;;;;;;;15.26;70.07;100367.78;5062065;28;20041;-71
2023/05/01 07:35:29;;;;;;;2.08;0.30;;;;;;;15.17;69.91;100371.50;5077484;28;20044;-72
2023/05/01 07:37:55;;;;;;;4.10;0.50;;;;;;;15.07;69.99;100368.19;5077323;28;20028;-71
2023/05/01 07:40:20;;;;;;;2.40;0.30;;;;;;;15.04;70.16;100370.91;5077022;28;20052;-71
2023/05/01 07:42:46;;;;;;;3.77;0.33;;;;;;;15.03;70.21;100377.09;5059129;28;20025;-71
2023/05/01 07:45:11;;;;;;;2.83;0.60;;;;;;;15.00;70.32;100370.13;5057161;28;20448;-71
2023/05/01 07:47:36;;;;;;;3.55;0.40;;;;;;;15.00;70.35;100372.75;5057106;28;20032;-71
2023/05/01 07:50:03;;;;;;;3.33;0.40;;;;;;;15.01;70.09;100368.31;5059321;28;20033;-71
2023/05/01 07:52:29;;;;;;;4.72;0.85;;;;;;;15.04;70.40;100373.56;5058864;28;20108;-71
2023/05/01 07:54:54;;;;;;;2.53;0.60;;;;;;;15.10;70.41;100365.50;5039215;28;20065;-71
2023/05/01 07:57:22;;;;;;;3.87;0.70;;;;;;;15.14;70.17;100367.16;5056988;28;20048;-72
2023/05/01 07:59:47;;;;;;;4.35;0.60;;;;;;;15.17;69.95;100364.44;5059946;28;20044;-72
2023/05/01 08:02:15;;;;;;;2.70;0.50;;;;;;;15.20;69.38;100364.38;5059104;28;20028;-72
2023/05/01 08:04:40;;;;;;;4.03;0.60;;;;;;;15.27;69.54;100364.22;5056897;28;20017;-72
2023/05/01 08:07:07;;;;;;;3.53;1.15;;;;;;;15.38;69.28;100356.91;5039410;28;20056;-73
2023/05/01 08:09:32;;;;;;;2.70;0.40;;;;;;;15.50;68.72;100361.06;5076117;28;20028;-72
2023/05/01 08:11:58;;;;;;;3.17;0.40;;;;;;;15.59;68.62;100363.50;5058996;28;20033;-72
2023/05/01 08:14:23;;;;;;;2.20;0.40;;;;;;;15.67;68.32;100360.69;5056686;28;20064;-72
2023/05/01 08:16:54;;;;;;;4.03;1.05;;;;;;;15.71;67.95;100361.50;5072680;28;20067;-72
2023/05/01 08:19:19;;;;;;;2.87;0.43;;;;;;;15.82;67.94;100362.09;5056736;28;20037;-73
2023/05/01 08:21:44;;;;;;;2.63;0.50;;;;;;;15.99;67.40;100359.03;5038895;28;20025;-74
2023/05/01 08:24:10;;;;;;;2.97;0.40;;;;;;;16.15;66.66;100359.50;5057519;28;20155;-73
2023/05/01 08:26:36;;;;;;;2.30;0.40;;;;;;;16.25;66.76;100354.84;5056802;28;20032;-73
2023/05/01 08:29:01;;;;;;;3.38;0.40;;;;;;;16.35;66.48;100352.81;5056712;28;20040;-73
2023/05/01 08:31:27;;;;;;;4.40;0.40;;;;;;;16.44;66.40;100359.66;5056217;28;20037;-73
2023/05/01 08:33:52;;;;;;;2.27;0.40;;;;;;;16.43;65.46;100352.63;5068337;28;20036;-73
2023/05/01 08:36:17;;;;;;;2.15;0.40;;;;;;;16.37;65.74;100353.66;5057697;28;20113;-73
2023/05/01 08:38:43;;;;;;;2.80;0.57;;;;;;;16.33;65.62;100355.53;5076241;28;20029;-72
2023/05/01 08:41:09;;;;;;;3.80;0.50;;;;;;;16.33;65.81;100358.19;5053395;28;20449;-72
2023/05/01 08:43:34;;;;;;;3.45;0.43;;;;;;;16.36;66.09;100358.09;5056482;28;20036;-72
2023/05/01 08:46:00;;;;;;;2.60;0.40;;;;;;;16.44;65.84;100359.66;5056201;28;20543;-73
2023/05/01 08:48:28;;;;;;;3.92;0.55;;;;;;;16.53;65.59;100361.22;5056444;28;20025;-73
2023/05/01 08:50:57;;;;;;;3.70;0.47;;;;;;;16.59;65.65;100364.59;5042062;28;20124;-73
2023/05/01 08:53:24;;;;;;;4.75;0.70;;;;;;;16.61;65.84;100368.06;5056401;28;20036;-73
2023/05/01 08:55:51;;;;;;;3.23;0.83;;;;;;;16.63;65.56;100371.56;5056314;28;20029;-72
2023/05/01 08:58:20;;;;;;;3.58;0.70;;;;;;;16.54;65.56;100377.13;5056248;28;20057;-72
2023/05/01 09:00:46;;;;;;;1.55;0.38;;;;;;;16.41;65.55;100370.38;5055816;28;20029;-72
2023/05/01 09:03:15;;;;;;;1.60;0.30;;;;;;;16.32;65.92;100374.16;5056301;28;20029;-72
2023/05/01 09:05:40;;;;;;;3.10;0.30;;;;;;;16.26;66.23;100376.97;5038268;28;20489;-72
2023/05/01 09:08:06;;;;;;;1.65;0.30;;;;;;;16.20;66.30;100376.25;5045565;28;20055;-72
2023/05/01 09:10:32;;;;;;;1.80;0.30;;;;;;;16.21;66.36;100372.66;5074308;28;20031;-72
2023/05/01 09:13:01;;;;;;;3.22;0.30;;;;;;;16.25;66.49;100376.09;5057959;28;20037;-72
2023/05/01 09:15:27;;;;;;;1.80;0.30;;;;;;;16.30;66.67;100374.22;5076778;28;20496;-73
2023/05/01 09:17:55;;;;;;;2.03;0.30;;;;;;;16.36;66.22;100374.03;5066417;28;20025;-73
2023/05/01 09:20:21;;;;;;;2.10;0.40;;;;;;;16.52;66.03;100372.75;5056008;28;20028;-73
2023/05/01 09:22:47;;;;;;;3.38;0.40;;;;;;;16.68;66.35;100378.53;5056521;28;20457;-73
2023/05/01 09:25:13;;;;;;;1.60;0.20;;;;;;;16.70;65.64;100377.59;5067705;28;20783;-72
2023/05/01 09:27:38;;;;;;;1.93;0.30;;;;;;;16.78;65.34;100385.34;5037996;28;20017;-73
2023/05/01 09:30:06;;;;;;;4.97;0.80;;;;;;;16.85;65.00;100386.03;5056937;28;20036;-73
2023/05/01 09:32:31;;;;;;;3.70;1.25;;;;;;;16.92;64.40;100380.50;5071296;28;20024;-73
2023/05/01 09:35:10;;;;;;;3.90;1.10;;;;;;;16.93;62.43;100370.75;5076036;28;20039;-73
2023/05/01 09:37:36;;;;;;;2.67;0.60;;;;;;;16.97;61.86;100379.47;5076187;28;20039;-73
2023/05/01 09:40:01;;;;;;;1.80;0.40;;;;;;;16.94;61.99;100375.16;5076027;28;20028;-73
2023/05/01 09:42:27;;;;;;;1.47;0.30;;;;;;;16.94;62.23;100386.63;5060030;28;20432;-73
2023/05/01 09:44:53;;;;;;;1.87;0.30;;;;;;;17.03;62.51;100374.03;5055949;28;20025;-73
2023/05/01 09:47:26;;;;;;;3.15;0.60;;;;;;;17.12;62.54;100373.75;5055764;28;20029;-73
2023/05/01 09:49:52;;;;;;;1.75;0.30;;;;;;;17.20;62.12;100381.53;5041781;28;20090;-74
2023/05/01 09:52:18;;;;;;;1.63;0.30;;;;;;;17.26;61.52;100381.31;5062606;28;20037;-74
2023/05/01 09:54:43;;;;;;;1.50;0.30;;;;;;;17.31;61.73;100379.38;5059485;28;20450;-74
2023/05/01 09:57:09;;;;;;;1.43;0.20;;;;;;;17.56;61.61;100373.31;5041628;28;20036;-74
2023/05/01 09:59:35;;;;;;;2.37;0.30;;;;;;;17.84;61.06;100371.56;5060458;28;20049;-74
2023/05/01 10:02:00;;;;;;;2.27;0.47;;;;;;;18.06;60.43;100372.63;5044186;28;20299;-74
2023/05/01 10:04:33;;;;;;;2.40;0.30;;;;;;;18.06;60.45;100380.63;5059235;28;20017;-75
2023/05/01 10:07:12;;;;;;;3.25;0.40;;;;;;;17.96;60.54;100386.28;5059221;28;20032;-74
2023/05/01 10:09:37;;;;;;;2.13;0.40;;;;;;;17.86;61.50;100380.38;5070092;28;20504;-74
2023/05/01 10:12:03;;;;;;;2.70;0.40;;;;;;;17.76;61.98;100379.81;5041458;28;20401;-74
2023/05/01 10:14:32;;;;;;;2.80;0.47;;;;;;;17.72;61.49;100394.13;5059014;28;20524;-74
2023/05/01 10:16:58;;;;;;;2.20;0.50;;;;;;;17.69;61.32;100383.59;5072711;28;20506;-74
2023/05/01 10:19:24;;;;;;;2.53;0.50;;;;;;;17.72;61.71;100389.66;5058748;28;20048;-74
2023/05/01 10:21:49;;;;;;;4.45;0.63;;;;;;;17.89;61.63;100393.59;5058863;28;20103;-74
2023/05/01 10:24:15;;;;;;;2.77;0.40;;;;;;;18.04;61.42;100393.13;5053599;28;20031;-74
2023/05/01 10:26:45;;;;;;;2.08;0.30;;;;;;;18.21;60.94;100386.38;5041195;28;20025;-74
2023/05/01 10:29:11;;;;;;;2.17;0.30;;;;;;;18.40;60.52;100383.94;5075594;28;20040;-74
2023/05/01 10:31:37;;;;;;;1.80;0.30;;;;;;;18.58;60.67;100384.22;5058479;28;20024;-74
2023/05/01 10:34:03;;;;;;;1.98;0.40;;;;;;;18.71;60.01;100384.66;5054251;28;20025;-74
2023/05/01 10:36:43;;;;;;;3.33;0.40;;;;;;;18.71;59.78;100382.84;5078532;28;20043;-74
2023/05/01 10:39:31;;;;;;;2.20;0.40;;;;;;;18.64;58.39;100384.84;5078557;28;20028;-74
2023/05/01 10:41:56;;;;;;;2.13;0.40;;;;;;;18.72;60.14;100391.72;5058597;28;20021;-74
2023/05/01 10:44:23;;;;;;;2.60;0.50;;;;;;;18.72;59.87;100387.25;5058324;28;20443;-74
2023/05/01 10:46:49;;;;;;;2.58;0.30;;;;;;;18.63;60.12;100385.78;5058329;28;20024;-75
2023/05/01 10:49:15;;;;;;;2.33;0.40;;;;;;;18.47;60.12;100389.94;5040046;28;20143;-75
2023/05/01 10:52:06;;;;;;;5.15;1.45;;;;;;;18.05;59.58;100391.31;5062794;28;20021;-72
2023/05/01 10:54:32;;;;;;;3.97;0.63;;;;;;;17.75;60.65;100394.94;5054199;28;20033;-72
2023/05/01 10:57:02;;;;;;;4.40;0.80;;;;;;;17.46;61.24;100399.34;5058237;28;20028;-71
2023/05/01 11:00:00;;;;;;;2.50;0.50;;;;;;;17.22;62.10;100391.19;5057954;28;20339;-72
2023/05/01 11:02:26;;;;;;;2.90;0.55;;;;;;;17.24;62.47;100387.59;5040279;28;20071;-72
2023/05/01 11:04:52;;;;;;;1.67;0.30;;;;;;;17.25;62.96;100394.69;5057721;28;20021;-72
2023/05/01 11:07:19;;;;;;;1.92;0.40;;;;;;;17.42;63.05;100403.03;5059697;28;20029;-73
2023/05/01 11:09:53;;;;;;;1.50;0.40;;;;;;;17.47;63.59;100390.44;5077120;28;20036;-73
2023/05/01 11:12:47;;;;;;;2.03;0.40;;;;;;;17.55;64.55;100392.88;5057908;28;20103;-73
2023/05/01 11:15:25;;;;;;;2.05;0.38;;;;;;;17.70;64.72;100388.00;5057523;28;20021;-73
2023/05/01 11:17:51;;;;;;;1.55;0.30;;;;;;;17.79;64.30;100388.56;5056526;28;20051;-73
2023/05/01 11:20:25;;;;;;;1.95;0.30;;;;;;;17.88;63.84;100391.84;5039568;28;20024;-73
2023/05/01 11:22:55;;;;;;;2.30;0.47;;;;;;;18.15;63.55;100381.22;5058512;28;20017;-73
2023/05/01 11:25:22;;;;;;;1.60;0.30;;;;;;;18.29;62.91;100378.09;5076485;28;20032;-73